Time;durP1;ratioP1;P1;durP2;ratioP2;P2;SDS_P1;SDS_P2;PMS_P1;PMS_P2;Temp;Humidity;BMP_temperature;BMP_pressure;BME280_temperature;BME280_humidity;BME280_pressure;Samples;Min_cycle;Max_cycle;Signal;HPM_P1;HPM_P2
2021/11/13 00:02:20;;;;;;;46.17;27.00;;;5.20;99.90;;;;;;5062164;28;20036;-58
2021/11/13 00:04:45;;;;;;;51.38;27.83;;;5.20;99.90;;;;;;5066187;28;20527;-55
2021/11/13 00:07:11;;;;;;;45.92;26.65;;;5.10;99.90;;;;;;5068952;28;20103;-55
2021/11/13 00:09:37;;;;;;;49.00;28.27;;;5.10;99.90;;;;;;5063488;28;20523;-55
2021/11/13 00:12:03;;;;;;;50.20;28.40;;;5.10;99.90;;;;;;5048682;28;20112;-55
2021/11/13 00:14:29;;;;;;;48.03;27.23;;;5.10;99.90;;;;;;5056126;28;20671;-56
2021/11/13 00:16:56;;;;;;;47.38;26.15;;;5.10;99.90;;;;;;5055159;28;20053;-58
2021/11/13 00:19:21;;;;;;;47.83;26.77;;;5.10;99.90;;;;;;5049699;28;20021;-55
2021/11/13 00:21:47;;;;;;;50.63;26.80;;;5.10;99.90;;;;;;5059714;28;20360;-53
2021/11/13 00:24:12;;;;;;;49.92;26.83;;;5.00;99.90;;;;;;5066430;28;20086;-57
2021/11/13 00:26:39;;;;;;;49.47;26.23;;;5.10;99.90;;;;;;5062158;28;20036;-54
2021/11/13 00:29:05;;;;;;;48.80;26.15;;;5.00;99.90;;;;;;5064072;28;20384;-52
2021/11/13 00:31:32;;;;;;;51.95;28.02;;;5.00;99.90;;;;;;5059543;28;20062;-55
2021/11/13 00:33:58;;;;;;;53.05;28.73;;;5.00;99.90;;;;;;5060431;28;20021;-54
2021/11/13 00:36:24;;;;;;;49.90;26.42;;;5.00;99.90;;;;;;5048020;28;20076;-58
2021/11/13 00:38:50;;;;;;;56.88;29.83;;;5.00;99.90;;;;;;5054832;28;20059;-55
2021/11/13 00:41:17;;;;;;;45.92;27.50;;;5.00;99.90;;;;;;5067874;28;20029;-56
2021/11/13 00:43:44;;;;;;;51.55;28.20;;;5.00;99.90;;;;;;5050738;28;20037;-54
2021/11/13 00:46:09;;;;;;;55.60;27.63;;;4.90;99.90;;;;;;5049362;28;20541;-55
2021/11/13 00:48:35;;;;;;;51.83;28.58;;;4.90;99.90;;;;;;5050502;28;20036;-54
2021/11/13 00:51:01;;;;;;;51.58;27.98;;;5.00;99.90;;;;;;5067817;28;20051;-56
2021/11/13 00:53:27;;;;;;;50.92;26.70;;;4.90;99.90;;;;;;5068010;28;20503;-54
2021/11/13 00:55:53;;;;;;;57.03;28.77;;;4.90;99.90;;;;;;5050267;28;20020;-53
2021/11/13 00:58:19;;;;;;;54.38;26.73;;;5.00;99.90;;;;;;5062997;28;20082;-56
2021/11/13 01:00:45;;;;;;;45.95;26.83;;;5.00;99.90;;;;;;5063264;28;20044;-54
2021/11/13 01:03:10;;;;;;;59.67;29.00;;;5.00;99.90;;;;;;5066661;28;20055;-56
2021/11/13 01:05:36;;;;;;;56.50;27.88;;;5.00;99.90;;;;;;5063625;28;20029;-55
2021/11/13 01:08:02;;;;;;;55.38;28.02;;;5.00;99.90;;;;;;5057081;28;20039;-57
2021/11/13 01:10:28;;;;;;;49.50;28.70;;;4.90;99.90;;;;;;5062070;28;20173;-57
2021/11/13 01:12:54;;;;;;;57.95;29.02;;;5.00;99.90;;;;;;5060892;28;20037;-58
2021/11/13 01:15:21;;;;;;;52.03;27.73;;;5.00;99.90;;;;;;5047092;28;20053;-55
2021/11/13 01:17:47;;;;;;;54.88;28.67;;;4.90;99.90;;;;;;5064346;28;20033;-55
2021/11/13 01:20:15;;;;;;;54.17;29.45;;;5.00;99.90;;;;;;5067616;28;20051;-57
2021/11/13 01:22:42;;;;;;;54.97;28.30;;;5.00;99.90;;;;;;5066296;28;20021;-56
2021/11/13 01:25:09;;;;;;;52.58;28.75;;;5.00;99.90;;;;;;5067299;28;20086;-55
2021/11/13 01:27:35;;;;;;;50.85;27.60;;;5.00;99.90;;;;;;5066836;28;20554;-57
2021/11/13 01:30:01;;;;;;;52.55;28.15;;;5.00;99.90;;;;;;5067361;28;20112;-52
2021/11/13 01:32:26;;;;;;;52.67;27.10;;;4.90;99.90;;;;;;5058891;28;20031;-57
2021/11/13 01:34:52;;;;;;;53.65;27.95;;;4.90;99.90;;;;;;5053630;28;20035;-54
2021/11/13 01:37:18;;;;;;;49.70;27.50;;;4.90;99.90;;;;;;5057114;28;20036;-55
2021/11/13 01:39:45;;;;;;;50.35;27.42;;;4.90;99.90;;;;;;5066629;28;20032;-56
2021/11/13 01:42:11;;;;;;;45.72;26.83;;;4.90;99.90;;;;;;5067152;28;20282;-57
2021/11/13 01:44:36;;;;;;;44.58;25.33;;;4.90;99.90;;;;;;5066527;28;20052;-56
2021/11/13 01:47:03;;;;;;;50.33;26.98;;;4.90;99.90;;;;;;5056857;28;20033;-57
2021/11/13 01:49:29;;;;;;;48.60;27.23;;;4.90;99.90;;;;;;5051502;28;20033;-55
2021/11/13 01:51:55;;;;;;;46.47;25.42;;;5.00;99.90;;;;;;5050953;28;20492;-57
2021/11/13 01:54:21;;;;;;;48.30;26.73;;;5.00;99.90;;;;;;5064475;28;20056;-56
2021/11/13 01:56:50;;;;;;;51.25;26.02;;;5.00;99.90;;;;;;5071282;28;20486;-58
2021/11/13 01:59:18;;;;;;;51.35;27.75;;;4.90;99.90;;;;;;5058737;28;20025;-54
2021/11/13 02:01:45;;;;;;;50.83;28.23;;;5.00;99.90;;;;;;5039623;28;20036;-58
2021/11/13 02:04:11;;;;;;;49.08;26.77;;;5.00;99.90;;;;;;5060571;28;20193;-58
2021/11/13 02:06:36;;;;;;;44.03;24.70;;;5.00;99.90;;;;;;5063059;28;20036;-55
2021/11/13 02:09:06;;;;;;;53.17;28.77;;;5.00;99.90;;;;;;5050890;28;20041;-57
2021/11/13 02:11:32;;;;;;;46.33;26.85;;;5.00;99.90;;;;;;5051348;28;20429;-55
2021/11/13 02:13:59;;;;;;;44.83;25.33;;;5.00;99.90;;;;;;5055741;28;20082;-56
2021/11/13 02:16:26;;;;;;;52.85;26.70;;;5.00;99.90;;;;;;5070735;28;20062;-55
2021/11/13 02:18:52;;;;;;;48.25;26.00;;;5.00;99.90;;;;;;5070238;28;20024;-55
2021/11/13 02:21:18;;;;;;;40.45;24.40;;;5.00;99.90;;;;;;5070708;28;20440;-58
2021/11/13 02:23:44;;;;;;;46.85;26.27;;;5.00;99.90;;;;;;5069150;28;20083;-57
2021/11/13 02:26:10;;;;;;;48.10;25.85;;;4.90;99.90;;;;;;5070228;28;20028;-54
2021/11/13 02:28:36;;;;;;;46.05;27.13;;;4.90;99.90;;;;;;5069758;28;20064;-57
2021/11/13 02:31:06;;;;;;;47.63;25.05;;;4.90;99.90;;;;;;5070536;28;20452;-56
2021/11/13 02:33:32;;;;;;;46.72;26.85;;;4.90;99.90;;;;;;5069797;28;20031;-56
2021/11/13 02:35:58;;;;;;;51.95;26.15;;;4.90;99.90;;;;;;5070080;28;20032;-58
2021/11/13 02:38:32;;;;;;;45.05;24.92;;;4.90;99.90;;;;;;5070455;28;20063;-57
2021/11/13 02:40:59;;;;;;;47.70;25.90;;;4.90;99.90;;;;;;5052458;28;20036;-56
2021/11/13 02:43:28;;;;;;;43.72;24.55;;;4.90;99.90;;;;;;5065875;28;20108;-57
2021/11/13 02:45:55;;;;;;;44.75;25.73;;;4.90;99.90;;;;;;5069865;28;20119;-55
2021/11/13 02:48:22;;;;;;;46.33;25.83;;;4.90;99.90;;;;;;5051855;28;20044;-54
2021/11/13 02:50:48;;;;;;;44.90;25.80;;;4.90;99.90;;;;;;5069748;28;20048;-57
2021/11/13 02:53:20;;;;;;;47.72;25.75;;;4.90;99.90;;;;;;5047391;28;20071;-56
2021/11/13 02:55:47;;;;;;;42.40;24.70;;;4.90;99.90;;;;;;5053719;28;20021;-57
2021/11/13 02:58:12;;;;;;;45.50;26.42;;;4.90;99.90;;;;;;5069074;28;20025;-57
2021/11/13 03:00:39;;;;;;;47.75;25.83;;;4.90;99.90;;;;;;5050685;28;20029;-56
2021/11/13 03:03:05;;;;;;;46.33;24.77;;;5.00;99.90;;;;;;5063427;28;20033;-56
2021/11/13 03:05:43;;;;;;;45.08;25.52;;;5.00;99.90;;;;;;5053320;28;20052;-58
2021/11/13 03:08:09;;;;;;;44.50;26.27;;;5.00;99.90;;;;;;5031866;28;20083;-57
2021/11/13 03:10:37;;;;;;;46.70;25.95;;;5.00;99.90;;;;;;5051958;28;20065;-56
2021/11/13 03:13:04;;;;;;;39.78;23.75;;;5.00;99.90;;;;;;5067811;28;20427;-56
2021/11/13 03:15:30;;;;;;;48.85;26.08;;;5.00;99.90;;;;;;5069464;28;20403;-53
2021/11/13 03:17:58;;;;;;;51.25;26.42;;;5.00;99.90;;;;;;5066720;28;20038;-57
2021/11/13 03:20:30;;;;;;;39.70;24.67;;;5.00;99.90;;;;;;5069070;28;20081;-58
2021/11/13 03:22:57;;;;;;;42.15;25.13;;;5.00;99.90;;;;;;5068012;28;20048;-57
2021/11/13 03:25:28;;;;;;;42.22;24.80;;;5.10;99.90;;;;;;5069166;28;20525;-54
2021/11/13 03:27:57;;;;;;;42.50;25.17;;;5.10;99.90;;;;;;5069032;28;20029;-58
2021/11/13 03:30:23;;;;;;;46.95;26.33;;;5.10;99.90;;;;;;5068869;28;20056;-58
2021/11/13 03:32:51;;;;;;;42.67;24.50;;;5.10;99.90;;;;;;5068963;28;20493;-54
2021/11/13 03:35:20;;;;;;;43.28;24.27;;;5.10;99.90;;;;;;5050102;28;20040;-55
2021/11/13 03:37:45;;;;;;;42.80;24.55;;;5.10;99.90;;;;;;5049324;28;20029;-56
2021/11/13 03:40:12;;;;;;;37.40;23.02;;;5.10;99.90;;;;;;5058702;28;20029;-54
2021/11/13 03:42:39;;;;;;;44.42;24.85;;;5.10;99.90;;;;;;5068384;28;20044;-57
2021/11/13 03:45:06;;;;;;;41.17;23.38;;;5.10;99.90;;;;;;5067107;28;20043;-55
2021/11/13 03:47:33;;;;;;;45.70;26.25;;;5.10;99.90;;;;;;5068888;28;20036;-57
2021/11/13 03:49:59;;;;;;;40.92;22.90;;;5.10;99.90;;;;;;5067631;28;20036;-55
2021/11/13 03:52:24;;;;;;;40.67;23.85;;;5.10;99.90;;;;;;5069136;28;20033;-54
2021/11/13 03:54:50;;;;;;;36.72;22.85;;;5.10;99.90;;;;;;5067789;28;20507;-58
2021/11/13 03:57:15;;;;;;;42.55;26.52;;;5.10;99.90;;;;;;5068968;28;20024;-56
2021/11/13 03:59:41;;;;;;;45.67;24.67;;;5.10;99.90;;;;;;5055670;28;20392;-53
2021/11/13 04:02:10;;;;;;;37.60;22.52;;;5.10;99.90;;;;;;5050281;28;20712;-55
2021/11/13 04:04:37;;;;;;;41.88;23.45;;;5.10;99.90;;;;;;5065748;28;20033;-56
2021/11/13 04:07:03;;;;;;;41.42;23.00;;;5.10;99.90;;;;;;5066542;28;20043;-53
2021/11/13 04:09:28;;;;;;;39.78;23.73;;;5.10;99.90;;;;;;5036296;28;20024;-54
2021/11/13 04:11:54;;;;;;;38.95;24.20;;;5.10;99.90;;;;;;5056548;28;20025;-54
2021/11/13 04:14:19;;;;;;;39.65;22.88;;;5.10;99.90;;;;;;5031400;28;20032;-57
2021/11/13 04:16:45;;;;;;;36.67;22.98;;;5.10;99.90;;;;;;5065465;28;20128;-54
2021/11/13 04:19:12;;;;;;;39.85;24.02;;;5.10;99.90;;;;;;5068534;28;20040;-58
2021/11/13 04:21:38;;;;;;;39.92;24.42;;;5.20;99.90;;;;;;5052544;28;20382;-53
2021/11/13 04:24:05;;;;;;;40.42;23.58;;;5.10;99.90;;;;;;5046126;28;20275;-53
2021/11/13 04:26:30;;;;;;;39.42;23.80;;;5.20;99.90;;;;;;5065509;28;20029;-57
2021/11/13 04:28:56;;;;;;;45.47;23.88;;;5.20;99.90;;;;;;5048773;28;20063;-54
2021/11/13 04:31:21;;;;;;;44.13;24.15;;;5.20;99.90;;;;;;5048550;28;20117;-57
2021/11/13 04:33:47;;;;;;;39.65;23.33;;;5.20;99.90;;;;;;5048110;28;20040;-55
2021/11/13 04:36:21;;;;;;;41.75;25.23;;;5.20;99.90;;;;;;5060841;28;20031;-55
2021/11/13 04:38:48;;;;;;;39.05;23.67;;;5.20;99.90;;;;;;5067853;28;20020;-55
2021/11/13 04:41:14;;;;;;;38.72;22.60;;;5.20;99.90;;;;;;5066667;28;20047;-55
2021/11/13 04:43:40;;;;;;;39.88;23.50;;;5.20;99.90;;;;;;5067754;28;20028;-54
2021/11/13 04:46:06;;;;;;;42.03;24.05;;;5.20;99.90;;;;;;5067920;28;20048;-54
2021/11/13 04:48:32;;;;;;;44.50;25.23;;;5.20;99.90;;;;;;5060115;28;20033;-56
2021/11/13 04:50:57;;;;;;;43.30;24.98;;;5.20;99.90;;;;;;5048658;28;20037;-52
2021/11/13 04:53:24;;;;;;;42.03;23.95;;;5.20;99.90;;;;;;5057121;28;20119;-57
2021/11/13 04:55:50;;;;;;;37.63;24.13;;;5.20;99.90;;;;;;5067895;28;20029;-54
2021/11/13 04:58:15;;;;;;;42.45;24.25;;;5.20;99.90;;;;;;5051580;28;20027;-55
2021/11/13 05:00:41;;;;;;;39.30;23.13;;;5.20;99.90;;;;;;5063751;28;20033;-52
2021/11/13 05:03:07;;;;;;;43.38;24.20;;;5.20;99.90;;;;;;5051358;28;20807;-57
2021/11/13 05:05:32;;;;;;;43.42;25.10;;;5.20;99.90;;;;;;5068402;28;20035;-53
2021/11/13 05:07:58;;;;;;;35.47;23.75;;;5.20;99.90;;;;;;5054300;28;20021;-52
2021/11/13 05:10:24;;;;;;;39.88;23.38;;;5.20;99.90;;;;;;5047980;28;20040;-53
2021/11/13 05:12:50;;;;;;;42.65;25.00;;;5.20;99.90;;;;;;5057313;28;20031;-55
2021/11/13 05:15:16;;;;;;;46.65;25.35;;;5.10;99.90;;;;;;5066586;28;20016;-53
2021/11/13 05:17:42;;;;;;;42.40;25.88;;;5.20;99.90;;;;;;5067660;28;20026;-55
2021/11/13 05:20:11;;;;;;;44.08;25.42;;;5.20;99.90;;;;;;5068835;28;20120;-57
2021/11/13 05:22:39;;;;;;;47.90;25.23;;;5.20;99.90;;;;;;5070172;28;20020;-53
2021/11/13 05:25:07;;;;;;;41.53;22.38;;;5.20;99.90;;;;;;5052248;28;20032;-54
2021/11/13 05:27:34;;;;;;;37.70;24.42;;;5.20;99.90;;;;;;5051717;28;20025;-54
2021/11/13 05:29:59;;;;;;;48.40;25.48;;;5.20;99.90;;;;;;5063234;28;20598;-53
2021/11/13 05:32:25;;;;;;;41.65;25.30;;;5.20;99.90;;;;;;5037290;28;20025;-56
2021/11/13 05:34:51;;;;;;;39.60;24.20;;;5.20;99.90;;;;;;5071413;28;20099;-57
2021/11/13 05:37:16;;;;;;;40.08;24.13;;;5.20;99.90;;;;;;5071567;28;20476;-58
2021/11/13 05:39:42;;;;;;;40.03;24.15;;;5.20;99.90;;;;;;5033455;28;20040;-51
2021/11/13 05:42:08;;;;;;;46.30;24.98;;;5.20;99.90;;;;;;5060399;28;20075;-56
2021/11/13 05:44:34;;;;;;;38.22;23.67;;;5.20;99.90;;;;;;5068965;28;20037;-56
2021/11/13 05:47:00;;;;;;;44.92;25.75;;;5.20;99.90;;;;;;5051319;28;20029;-56
2021/11/13 05:49:26;;;;;;;41.47;24.08;;;5.10;99.90;;;;;;5051385;28;20043;-56
2021/11/13 05:51:51;;;;;;;40.67;24.13;;;5.10;99.90;;;;;;5051618;28;20125;-51
2021/11/13 05:54:18;;;;;;;37.90;23.70;;;5.20;99.90;;;;;;5051895;28;20520;-56
2021/11/13 05:56:43;;;;;;;43.00;25.20;;;5.20;99.90;;;;;;5051370;28;20092;-54
2021/11/13 05:59:09;;;;;;;39.53;24.27;;;5.20;99.90;;;;;;5061949;28;20488;-56
2021/11/13 06:01:34;;;;;;;42.28;24.65;;;5.20;99.90;;;;;;5063065;28;20029;-54
2021/11/13 06:04:00;;;;;;;41.58;23.73;;;5.10;99.90;;;;;;5060089;28;20646;-54
2021/11/13 06:06:26;;;;;;;47.33;24.67;;;5.10;99.90;;;;;;5071193;28;20021;-57
2021/11/13 06:08:52;;;;;;;43.75;25.20;;;5.10;99.90;;;;;;5068714;28;20056;-56
2021/11/13 06:11:17;;;;;;;51.17;24.17;;;5.20;99.90;;;;;;5070371;28;20480;-54
2021/11/13 06:13:43;;;;;;;38.67;24.42;;;5.20;99.90;;;;;;5070940;28;20025;-52
2021/11/13 06:16:09;;;;;;;42.08;23.23;;;5.20;99.90;;;;;;5068937;28;20016;-53
2021/11/13 06:18:36;;;;;;;37.17;23.00;;;5.20;99.90;;;;;;5058405;28;20646;-57
2021/11/13 06:21:03;;;;;;;43.42;24.75;;;5.20;99.90;;;;;;5050732;28;20025;-52
2021/11/13 06:23:29;;;;;;;47.83;25.90;;;5.20;99.90;;;;;;5050581;28;20052;-51
2021/11/13 06:25:54;;;;;;;43.53;25.08;;;5.20;99.90;;;;;;5050535;28;20064;-57
2021/11/13 06:28:20;;;;;;;46.95;25.73;;;5.10;99.90;;;;;;5050605;28;20055;-58
2021/11/13 06:30:45;;;;;;;43.15;24.55;;;5.10;99.90;;;;;;5051412;28;20037;-55
2021/11/13 06:33:11;;;;;;;45.25;24.98;;;5.10;99.90;;;;;;5051155;28;20053;-54
2021/11/13 06:35:37;;;;;;;40.65;24.52;;;5.10;99.90;;;;;;5050441;28;20071;-55
2021/11/13 06:38:06;;;;;;;43.95;24.30;;;5.10;99.90;;;;;;5051568;28;20480;-54
2021/11/13 06:40:32;;;;;;;41.00;24.08;;;5.10;99.90;;;;;;5050356;28;20036;-54
2021/11/13 06:42:58;;;;;;;39.70;25.40;;;5.10;99.90;;;;;;5064417;28;20028;-55
2021/11/13 06:45:24;;;;;;;40.13;23.75;;;5.10;99.90;;;;;;5061454;28;20033;-57
2021/11/13 06:47:49;;;;;;;36.30;22.95;;;5.10;99.90;;;;;;5057225;28;20025;-55
2021/11/13 06:50:15;;;;;;;41.42;24.40;;;5.10;99.90;;;;;;5055616;28;20492;-56
2021/11/13 06:52:41;;;;;;;40.58;24.02;;;5.10;99.90;;;;;;5050820;28;20029;-57
2021/11/13 06:55:07;;;;;;;37.88;25.15;;;5.10;99.90;;;;;;5050720;28;20611;-54
2021/11/13 06:57:33;;;;;;;42.85;24.48;;;5.10;99.90;;;;;;5032094;28;20033;-56
2021/11/13 06:59:59;;;;;;;36.47;23.67;;;5.10;99.90;;;;;;5051398;28;20603;-54
2021/11/13 07:02:25;;;;;;;44.92;25.15;;;5.10;99.90;;;;;;5050034;28;20047;-56
2021/11/13 07:04:52;;;;;;;39.47;24.17;;;5.10;99.90;;;;;;5057240;28;20032;-54
2021/11/13 07:07:19;;;;;;;40.45;24.95;;;5.10;99.90;;;;;;5062715;28;20032;-56
2021/11/13 07:09:44;;;;;;;39.65;24.52;;;5.20;99.90;;;;;;5049734;28;20082;-56
2021/11/13 07:12:13;;;;;;;40.17;25.42;;;5.20;99.90;;;;;;5062572;28;20033;-56
2021/11/13 07:14:38;;;;;;;46.85;25.35;;;5.20;99.90;;;;;;5068536;28;20694;-52
2021/11/13 07:17:04;;;;;;;46.25;26.67;;;5.10;99.90;;;;;;5090342;28;20020;-56
2021/11/13 07:19:30;;;;;;;42.15;24.05;;;5.10;99.90;;;;;;5064984;28;20064;-55
2021/11/13 07:21:55;;;;;;;38.08;24.13;;;5.10;99.90;;;;;;5051183;28;20107;-55
2021/11/13 07:24:21;;;;;;;42.53;26.13;;;5.10;99.90;;;;;;5053127;28;20116;-54
2021/11/13 07:26:52;;;;;;;46.13;25.58;;;5.10;99.90;;;;;;5049635;28;20032;-54
2021/11/13 07:29:19;;;;;;;39.28;23.98;;;5.10;99.90;;;;;;5050292;28;20020;-57
2021/11/13 07:31:45;;;;;;;45.70;24.80;;;5.10;99.90;;;;;;5056917;28;20033;-55
2021/11/13 07:34:10;;;;;;;39.22;24.35;;;5.10;99.90;;;;;;5063820;28;20040;-54
2021/11/13 07:36:36;;;;;;;41.67;25.67;;;5.10;99.90;;;;;;5069699;28;20039;-56
2021/11/13 07:39:02;;;;;;;43.88;24.98;;;5.10;99.90;;;;;;5069058;28;20496;-54
2021/11/13 07:41:28;;;;;;;41.45;24.58;;;5.20;99.90;;;;;;5069826;28;20028;-54
2021/11/13 07:43:53;;;;;;;43.05;24.85;;;5.20;99.90;;;;;;5069790;28;20787;-56
2021/11/13 07:46:19;;;;;;;38.70;25.33;;;5.20;99.90;;;;;;5069420;28;20039;-55
2021/11/13 07:48:45;;;;;;;41.63;23.73;;;5.20;99.90;;;;;;5069266;28;20099;-52
2021/11/13 07:51:10;;;;;;;37.10;22.33;;;5.20;99.90;;;;;;5068910;28;20059;-55
2021/11/13 07:53:36;;;;;;;45.03;26.00;;;5.20;99.90;;;;;;5069609;28;20396;-54
2021/11/13 07:56:02;;;;;;;44.40;23.73;;;5.20;99.90;;;;;;5069339;28;20029;-54
2021/11/13 07:58:28;;;;;;;39.03;24.00;;;5.20;99.90;;;;;;5069080;28;20032;-56
2021/11/13 08:00:54;;;;;;;38.63;22.15;;;5.30;99.90;;;;;;5069158;28;20086;-53
2021/11/13 08:03:20;;;;;;;40.50;23.65;;;5.30;99.90;;;;;;5069009;28;20020;-57
2021/11/13 08:05:46;;;;;;;37.75;23.58;;;5.30;99.90;;;;;;5069284;28;20020;-55
2021/11/13 08:08:11;;;;;;;36.63;22.98;;;5.30;99.90;;;;;;5069612;28;20021;-54
2021/11/13 08:10:43;;;;;;;36.17;23.08;;;5.30;99.90;;;;;;5070063;28;20048;-55
2021/11/13 08:13:16;;;;;;;37.05;22.58;;;5.30;99.90;;;;;;5068676;28;20078;-53
2021/11/13 08:15:42;;;;;;;31.27;21.38;;;5.30;99.90;;;;;;5067833;28;20016;-58
2021/11/13 08:18:09;;;;;;;38.33;22.67;;;5.30;99.90;;;;;;5068924;28;20043;-54
2021/11/13 08:20:35;;;;;;;34.53;22.35;;;5.40;99.90;;;;;;5069272;28;20056;-54
2021/11/13 08:23:04;;;;;;;35.40;22.38;;;5.40;99.90;;;;;;5069404;28;20024;-54
2021/11/13 08:25:31;;;;;;;37.20;23.38;;;5.40;99.90;;;;;;5051028;28;20402;-54
2021/11/13 08:27:57;;;;;;;39.58;22.58;;;5.40;99.90;;;;;;5068896;28;20036;-53
2021/11/13 08:30:28;;;;;;;36.65;21.75;;;5.40;99.90;;;;;;5068051;28;20021;-56
2021/11/13 08:32:53;;;;;;;35.60;22.48;;;5.40;99.90;;;;;;5066967;28;20442;-52
2021/11/13 08:35:19;;;;;;;36.50;21.83;;;5.40;99.90;;;;;;5067945;28;20096;-55
2021/11/13 08:37:45;;;;;;;38.42;23.27;;;5.40;99.90;;;;;;5068054;28;20511;-55
2021/11/13 08:40:11;;;;;;;38.38;23.70;;;5.50;99.90;;;;;;5057397;28;20400;-55
2021/11/13 08:42:37;;;;;;;33.75;23.58;;;5.50;99.90;;;;;;5048833;28;20515;-54
2021/11/13 08:45:05;;;;;;;35.50;22.35;;;5.50;99.90;;;;;;5048576;28;20401;-56
2021/11/13 08:47:31;;;;;;;32.60;21.92;;;5.50;99.90;;;;;;5047965;28;20033;-52
2021/11/13 08:49:57;;;;;;;33.38;20.80;;;5.50;99.90;;;;;;5048353;28;20435;-54
2021/11/13 08:52:22;;;;;;;35.13;21.48;;;5.50;99.90;;;;;;5047795;28;20482;-55
2021/11/13 08:54:49;;;;;;;31.90;20.15;;;5.50;99.90;;;;;;5047471;28;20029;-54
2021/11/13 08:57:15;;;;;;;39.65;22.08;;;5.50;99.90;;;;;;5049049;28;20021;-57
2021/11/13 08:59:41;;;;;;;38.28;22.85;;;5.60;99.90;;;;;;5047689;28;20032;-56
2021/11/13 09:02:13;;;;;;;34.92;22.35;;;5.60;99.90;;;;;;5047302;28;20551;-56
2021/11/13 09:04:40;;;;;;;34.08;20.25;;;5.60;99.90;;;;;;5055169;28;20401;-55
2021/11/13 09:07:08;;;;;;;29.45;19.85;;;5.60;99.90;;;;;;5065127;28;20031;-58
2021/11/13 09:09:36;;;;;;;38.88;21.17;;;5.60;99.90;;;;;;5047752;28;20477;-54
2021/11/13 09:12:08;;;;;;;37.65;21.15;;;5.60;99.90;;;;;;5047903;28;20025;-56
2021/11/13 09:14:34;;;;;;;38.13;21.70;;;5.70;99.90;;;;;;5048227;28;20056;-54
2021/11/13 09:17:01;;;;;;;32.45;21.10;;;5.70;99.90;;;;;;5049108;28;20901;-57
2021/11/13 09:19:27;;;;;;;30.92;20.38;;;5.70;99.90;;;;;;5067904;28;20099;-56
2021/11/13 09:21:53;;;;;;;31.70;19.52;;;5.70;99.90;;;;;;5068187;28;20032;-55
2021/11/13 09:24:20;;;;;;;32.08;20.08;;;5.80;99.90;;;;;;5068386;28;20033;-52
2021/11/13 09:26:46;;;;;;;33.83;21.38;;;5.80;99.90;;;;;;5056610;28;20041;-58
2021/11/13 09:29:13;;;;;;;35.25;21.25;;;5.80;99.90;;;;;;5051071;28;20033;-55
2021/11/13 09:31:41;;;;;;;32.25;21.58;;;5.80;99.90;;;;;;5051361;28;20482;-57
2021/11/13 09:34:15;;;;;;;33.13;20.50;;;5.90;99.90;;;;;;5046784;28;20032;-51
2021/11/13 09:36:41;;;;;;;34.40;21.35;;;6.00;99.90;;;;;;5048226;28;20036;-54
2021/11/13 09:39:07;;;;;;;32.35;20.45;;;6.00;99.90;;;;;;5047749;28;20036;-58
2021/11/13 09:41:33;;;;;;;36.65;21.08;;;6.00;99.90;;;;;;5047793;28;20412;-56
2021/11/13 09:43:59;;;;;;;32.55;20.35;;;6.00;99.90;;;;;;5048081;28;20033;-53
2021/11/13 09:46:25;;;;;;;30.13;21.08;;;6.00;99.90;;;;;;5048885;28;20041;-54
2021/11/13 09:48:56;;;;;;;27.98;19.67;;;6.00;99.90;;;;;;5063737;28;20033;-53
2021/11/13 09:51:23;;;;;;;32.58;20.83;;;6.00;99.90;;;;;;5049420;28;20037;-56
2021/11/13 09:53:49;;;;;;;33.05;20.83;;;6.00;99.90;;;;;;5066130;28;20028;-56
2021/11/13 09:56:15;;;;;;;32.63;20.70;;;6.00;99.90;;;;;;5029580;28;20029;-54
2021/11/13 09:58:42;;;;;;;29.23;20.45;;;6.00;99.90;;;;;;5047133;28;20068;-56
2021/11/13 10:01:09;;;;;;;33.22;20.42;;;6.00;99.90;;;;;;5066800;28;20526;-55
2021/11/13 10:03:35;;;;;;;33.58;21.33;;;6.10;99.90;;;;;;5065738;28;20033;-54
2021/11/13 10:06:04;;;;;;;27.98;19.73;;;6.10;99.90;;;;;;5067493;28;20619;-56
2021/11/13 10:08:30;;;;;;;30.00;20.58;;;6.10;99.90;;;;;;5055782;28;20029;-52
2021/11/13 10:10:57;;;;;;;30.73;19.83;;;6.10;99.90;;;;;;5058773;28;20372;-52
2021/11/13 10:13:37;;;;;;;30.05;19.33;;;6.20;99.90;;;;;;5070857;28;20108;-55
2021/11/13 10:16:10;;;;;;;30.17;19.67;;;6.20;99.90;;;;;;5051263;28;20021;-54
2021/11/13 10:18:39;;;;;;;29.25;20.08;;;6.20;99.90;;;;;;5070565;28;20036;-54
2021/11/13 10:21:19;;;;;;;30.15;19.67;;;6.20;99.90;;;;;;5061246;28;20041;-58
2021/11/13 10:23:59;;;;;;;28.05;19.10;;;6.20;99.90;;;;;;5032931;28;20032;-56
2021/11/13 10:26:28;;;;;;;26.33;18.42;;;6.30;99.90;;;;;;5051749;28;20669;-56
2021/11/13 10:28:55;;;;;;;27.73;19.40;;;6.30;99.90;;;;;;5050317;28;20025;-56
2021/11/13 10:31:32;;;;;;;29.27;18.90;;;6.30;99.90;;;;;;5061013;28;20036;-55
2021/11/13 10:34:00;;;;;;;26.55;18.50;;;6.30;99.90;;;;;;5070646;28;20103;-57
2021/11/13 10:36:32;;;;;;;29.50;18.95;;;6.40;99.90;;;;;;5068455;28;20048;-57
2021/11/13 10:39:10;;;;;;;28.00;19.13;;;6.40;99.90;;;;;;5069327;28;20416;-57
2021/11/13 10:41:47;;;;;;;28.10;18.95;;;6.40;99.90;;;;;;5064332;28;20051;-57
2021/11/13 10:44:14;;;;;;;27.27;18.60;;;6.40;99.90;;;;;;5068244;28;20045;-55
2021/11/13 10:46:43;;;;;;;27.98;18.95;;;6.50;99.90;;;;;;5042762;28;20496;-55
2021/11/13 10:49:10;;;;;;;26.55;18.42;;;6.50;99.90;;;;;;5054994;28;20021;-53
2021/11/13 10:51:45;;;;;;;26.15;17.63;;;6.50;99.90;;;;;;5064624;28;20037;-58
2021/11/13 10:54:14;;;;;;;29.17;18.95;;;6.60;99.90;;;;;;5069667;28;20523;-57
2021/11/13 10:56:45;;;;;;;31.02;19.77;;;6.60;99.90;;;;;;5069840;28;20020;-53
2021/11/13 10:59:11;;;;;;;34.00;20.77;;;6.60;99.90;;;;;;5069443;28;20606;-57
2021/11/13 11:01:48;;;;;;;26.98;18.55;;;6.60;99.90;;;;;;5070005;28;20351;-51
2021/11/13 11:04:23;;;;;;;29.83;18.83;;;6.70;99.90;;;;;;5069664;28;20182;-56
2021/11/13 11:06:52;;;;;;;30.35;19.05;;;6.70;99.90;;;;;;5069895;28;20551;-56
2021/11/13 11:09:19;;;;;;;27.13;18.55;;;6.70;99.90;;;;;;5068376;28;20035;-55
2021/11/13 11:11:45;;;;;;;23.98;17.55;;;6.80;99.90;;;;;;5069644;28;20040;-56
2021/11/13 11:14:15;;;;;;;28.05;18.30;;;6.80;99.90;;;;;;5069654;28;20511;-56
2021/11/13 11:16:51;;;;;;;29.02;18.67;;;6.80;99.90;;;;;;5070084;28;20031;-53
2021/11/13 11:19:25;;;;;;;22.35;17.55;;;6.80;99.90;;;;;;5069187;28;20067;-57
2021/11/13 11:21:55;;;;;;;24.05;17.65;;;6.90;99.90;;;;;;5069446;28;20180;-57
2021/11/13 11:24:24;;;;;;;23.27;16.48;;;6.90;99.90;;;;;;5069398;28;20094;-56
2021/11/13 11:27:10;;;;;;;25.15;16.30;;;6.90;99.90;;;;;;5069270;28;20492;-54
2021/11/13 11:29:45;;;;;;;23.15;16.27;;;6.90;99.90;;;;;;5069048;28;20039;-58
2021/11/13 11:32:14;;;;;;;25.05;17.40;;;6.90;99.90;;;;;;5059153;28;20025;-56
2021/11/13 11:34:42;;;;;;;26.35;16.67;;;6.90;99.90;;;;;;5048585;28;20028;-56
2021/11/13 11:37:19;;;;;;;23.98;16.83;;;7.00;99.90;;;;;;5049276;28;20025;-56
2021/11/13 11:39:52;;;;;;;25.00;17.80;;;7.00;99.90;;;;;;5049000;28;20064;-55
2021/11/13 11:42:20;;;;;;;26.92;19.00;;;7.00;99.90;;;;;;5049534;28;20023;-54
2021/11/13 11:44:48;;;;;;;23.77;17.85;;;7.00;99.90;;;;;;5053471;28;20021;-57
2021/11/13 11:47:17;;;;;;;27.10;18.60;;;7.00;99.90;;;;;;5051455;28;20151;-57
2021/11/13 11:49:53;;;;;;;27.20;19.23;;;7.00;99.90;;;;;;5068133;28;20067;-56
2021/11/13 11:52:21;;;;;;;29.98;18.35;;;7.10;99.90;;;;;;5069172;28;20051;-54
2021/11/13 11:54:51;;;;;;;27.75;17.90;;;7.10;99.90;;;;;;5067071;28;20024;-56
2021/11/13 11:57:44;;;;;;;31.33;19.70;;;7.10;99.90;;;;;;5069238;28;20031;-55
2021/11/13 12:00:16;;;;;;;25.95;16.85;;;7.20;99.90;;;;;;5048415;28;20127;-56
2021/11/13 12:02:44;;;;;;;27.42;17.50;;;7.20;99.90;;;;;;5055075;28;20032;-52
2021/11/13 12:05:13;;;;;;;26.45;17.42;;;7.30;99.90;;;;;;5039877;28;20547;-56
2021/11/13 12:07:41;;;;;;;27.17;18.27;;;7.30;99.90;;;;;;5048422;28;20562;-56
2021/11/13 12:10:11;;;;;;;25.60;18.45;;;7.30;99.90;;;;;;5051462;28;20078;-55
2021/11/13 12:12:58;;;;;;;27.45;18.60;;;7.30;99.90;;;;;;5065251;28;20669;-52
2021/11/13 12:15:27;;;;;;;24.40;17.17;;;7.30;99.90;;;;;;5069237;28;20028;-53
2021/11/13 12:17:57;;;;;;;29.13;19.35;;;7.30;99.90;;;;;;5062147;28;20949;-55
2021/11/13 12:20:29;;;;;;;25.33;17.67;;;7.40;99.90;;;;;;5068310;28;20039;-56
2021/11/13 12:23:05;;;;;;;24.95;17.33;;;7.40;99.90;;;;;;5067331;28;20098;-56
2021/11/13 12:25:34;;;;;;;27.83;19.02;;;7.30;99.90;;;;;;5068151;28;20032;-54
2021/11/13 12:28:04;;;;;;;25.45;17.58;;;7.40;99.90;;;;;;5068543;28;20099;-57
2021/11/13 12:30:42;;;;;;;28.33;18.52;;;7.40;99.90;;;;;;5048077;28;20036;-57
2021/11/13 12:33:26;;;;;;;22.90;17.42;;;7.40;99.90;;;;;;5067893;28;20028;-56
2021/11/13 12:36:07;;;;;;;27.77;17.98;;;7.50;99.90;;;;;;5049765;28;20488;-54
2021/11/13 12:38:52;;;;;;;24.58;17.25;;;7.50;99.90;;;;;;5054858;28;20021;-54